Terminal Aerodrome Forecast
Issued by NWS Twin Cities, MN

Home | Current Version | Previous Version | Text Only | Print | Product List | Glossary Off
Versions: 1 2 3 4 5 6 7 8 9 10 11 12 13 14 15 16 17 18 19 20 21 22

888
FTUS43 KMPX 191726
TAFEAU
TAF
KEAU 191726Z 1918/2018 14004KT 2SM BR OVC003
     FM192100 16004KT 5SM BR OVC006
     FM200200 13003KT 3SM BR OVC007
     FM200400 13003KT 1 1/2SM -RA BR OVC005=

USA.gov is the U.S. government's official web portal to all federal, state and local government web resources and services.